sensor_id;sensor_type;location;lat;lon;timestamp;temperature;humidity
80232;DHT22;74189;42.124;24.752;2023-11-21T00:00:15;8.10;59.30
80232;DHT22;74189;42.124;24.752;2023-11-21T00:02:42;8.10;59.40
80232;DHT22;74189;42.124;24.752;2023-11-21T00:05:08;8.10;59.30
80232;DHT22;74189;42.124;24.752;2023-11-21T00:07:36;8.10;59.20
80232;DHT22;74189;42.124;24.752;2023-11-21T00:10:01;8.10;59.50
80232;DHT22;74189;42.124;24.752;2023-11-21T00:12:28;8.10;59.70
80232;DHT22;74189;42.124;24.752;2023-11-21T00:14:55;8.10;60.10
80232;DHT22;74189;42.124;24.752;2023-11-21T00:17:20;8.10;60.20
80232;DHT22;74189;42.124;24.752;2023-11-21T00:19:46;8.10;60.20
80232;DHT22;74189;42.124;24.752;2023-11-21T00:22:12;8.10;60.00
80232;DHT22;74189;42.124;24.752;2023-11-21T00:24:37;8.10;60.00
80232;DHT22;74189;42.124;24.752;2023-11-21T00:27:03;8.10;59.90
80232;DHT22;74189;42.124;24.752;2023-11-21T00:29:28;8.10;59.80
80232;DHT22;74189;42.124;24.752;2023-11-21T00:31:54;8.10;60.10
80232;DHT22;74189;42.124;24.752;2023-11-21T00:34:20;8.10;60.20
80232;DHT22;74189;42.124;24.752;2023-11-21T00:36:45;8.10;60.20
80232;DHT22;74189;42.124;24.752;2023-11-21T00:39:11;8.00;60.20
80232;DHT22;74189;42.124;24.752;2023-11-21T00:41:37;8.10;60.50
80232;DHT22;74189;42.124;24.752;2023-11-21T00:44:03;8.00;60.50
80232;DHT22;74189;42.124;24.752;2023-11-21T00:46:29;8.00;60.70
80232;DHT22;74189;42.124;24.752;2023-11-21T00:48:55;8.00;60.70
80232;DHT22;74189;42.124;24.752;2023-11-21T00:51:21;8.10;61.00
80232;DHT22;74189;42.124;24.752;2023-11-21T00:53:47;8.10;60.80
80232;DHT22;74189;42.124;24.752;2023-11-21T00:56:14;8.10;60.40
80232;DHT22;74189;42.124;24.752;2023-11-21T00:58:40;8.10;60.30
80232;DHT22;74189;42.124;24.752;2023-11-21T01:01:12;8.10;60.30
80232;DHT22;74189;42.124;24.752;2023-11-21T01:03:37;8.10;59.70
80232;DHT22;74189;42.124;24.752;2023-11-21T01:06:03;8.10;60.30
80232;DHT22;74189;42.124;24.752;2023-11-21T01:08:33;8.10;60.30
80232;DHT22;74189;42.124;24.752;2023-11-21T01:10:58;8.00;60.10
80232;DHT22;74189;42.124;24.752;2023-11-21T01:13:24;8.00;59.90
80232;DHT22;74189;42.124;24.752;2023-11-21T01:15:55;7.90;59.90
80232;DHT22;74189;42.124;24.752;2023-11-21T01:18:21;7.90;60.20
80232;DHT22;74189;42.124;24.752;2023-11-21T01:20:46;7.90;60.70
80232;DHT22;74189;42.124;24.752;2023-11-21T01:23:13;7.80;60.70
80232;DHT22;74189;42.124;24.752;2023-11-21T01:25:39;7.90;60.60
80232;DHT22;74189;42.124;24.752;2023-11-21T01:28:04;7.90;60.20
80232;DHT22;74189;42.124;24.752;2023-11-21T01:30:31;7.80;60.30
80232;DHT22;74189;42.124;24.752;2023-11-21T01:32:58;7.90;60.60
80232;DHT22;74189;42.124;24.752;2023-11-21T01:35:24;7.90;60.60
80232;DHT22;74189;42.124;24.752;2023-11-21T01:37:50;7.80;60.60
80232;DHT22;74189;42.124;24.752;2023-11-21T01:40:16;7.80;60.10
80232;DHT22;74189;42.124;24.752;2023-11-21T01:42:42;7.80;59.80
80232;DHT22;74189;42.124;24.752;2023-11-21T01:45:09;7.80;59.70
80232;DHT22;74189;42.124;24.752;2023-11-21T01:47:36;7.80;59.70
80232;DHT22;74189;42.124;24.752;2023-11-21T01:50:03;7.80;60.00
80232;DHT22;74189;42.124;24.752;2023-11-21T01:52:35;7.80;60.20
80232;DHT22;74189;42.124;24.752;2023-11-21T01:55:01;7.80;59.70
80232;DHT22;74189;42.124;24.752;2023-11-21T01:57:28;7.70;58.60
80232;DHT22;74189;42.124;24.752;2023-11-21T01:59:54;7.70;58.90
80232;DHT22;74189;42.124;24.752;2023-11-21T02:02:20;7.70;59.60
80232;DHT22;74189;42.124;24.752;2023-11-21T02:04:46;7.70;60.00
80232;DHT22;74189;42.124;24.752;2023-11-21T02:07:11;7.70;60.20
80232;DHT22;74189;42.124;24.752;2023-11-21T02:09:37;7.70;60.40
80232;DHT22;74189;42.124;24.752;2023-11-21T02:12:04;7.70;60.40
80232;DHT22;74189;42.124;24.752;2023-11-21T02:14:30;7.70;60.10
80232;DHT22;74189;42.124;24.752;2023-11-21T02:16:57;7.70;60.00
80232;DHT22;74189;42.124;24.752;2023-11-21T02:19:23;7.70;60.10
80232;DHT22;74189;42.124;24.752;2023-11-21T02:21:52;7.70;59.80
80232;DHT22;74189;42.124;24.752;2023-11-21T02:24:21;7.70;59.80
80232;DHT22;74189;42.124;24.752;2023-11-21T02:26:48;7.60;59.90
80232;DHT22;74189;42.124;24.752;2023-11-21T02:29:17;7.60;59.90
80232;DHT22;74189;42.124;24.752;2023-11-21T02:31:44;7.60;59.70
80232;DHT22;74189;42.124;24.752;2023-11-21T02:34:17;7.60;59.80
80232;DHT22;74189;42.124;24.752;2023-11-21T02:36:44;7.60;60.20
80232;DHT22;74189;42.124;24.752;2023-11-21T02:39:12;7.50;60.40
80232;DHT22;74189;42.124;24.752;2023-11-21T02:41:38;7.60;60.70
80232;DHT22;74189;42.124;24.752;2023-11-21T02:44:05;7.60;60.60
80232;DHT22;74189;42.124;24.752;2023-11-21T02:46:32;7.60;60.10
80232;DHT22;74189;42.124;24.752;2023-11-21T02:49:00;7.60;60.00
80232;DHT22;74189;42.124;24.752;2023-11-21T02:51:26;7.50;60.20
80232;DHT22;74189;42.124;24.752;2023-11-21T02:53:51;7.50;60.40
80232;DHT22;74189;42.124;24.752;2023-11-21T02:56:17;7.50;60.30
80232;DHT22;74189;42.124;24.752;2023-11-21T02:58:43;7.50;59.60
80232;DHT22;74189;42.124;24.752;2023-11-21T03:01:09;7.50;59.80
80232;DHT22;74189;42.124;24.752;2023-11-21T03:03:39;7.50;60.10
80232;DHT22;74189;42.124;24.752;2023-11-21T03:06:06;7.50;60.20
80232;DHT22;74189;42.124;24.752;2023-11-21T03:08:32;7.50;60.40
80232;DHT22;74189;42.124;24.752;2023-11-21T03:10:58;7.40;59.80
80232;DHT22;74189;42.124;24.752;2023-11-21T03:13:23;7.40;60.10
80232;DHT22;74189;42.124;24.752;2023-11-21T03:15:49;7.40;60.10
80232;DHT22;74189;42.124;24.752;2023-11-21T03:18:15;7.40;60.50
80232;DHT22;74189;42.124;24.752;2023-11-21T03:20:41;7.40;60.50
80232;DHT22;74189;42.124;24.752;2023-11-21T03:23:07;7.40;60.60
80232;DHT22;74189;42.124;24.752;2023-11-21T03:25:32;7.40;60.60
80232;DHT22;74189;42.124;24.752;2023-11-21T03:27:58;7.40;60.60
80232;DHT22;74189;42.124;24.752;2023-11-21T03:30:24;7.50;60.70
80232;DHT22;74189;42.124;24.752;2023-11-21T03:32:49;7.40;60.20
80232;DHT22;74189;42.124;24.752;2023-11-21T03:35:15;7.40;60.10
80232;DHT22;74189;42.124;24.752;2023-11-21T03:37:41;7.40;60.40
80232;DHT22;74189;42.124;24.752;2023-11-21T03:40:07;7.50;60.80
80232;DHT22;74189;42.124;24.752;2023-11-21T03:42:38;7.40;60.30
80232;DHT22;74189;42.124;24.752;2023-11-21T03:45:05;7.50;60.20
80232;DHT22;74189;42.124;24.752;2023-11-21T03:47:30;7.50;60.40
80232;DHT22;74189;42.124;24.752;2023-11-21T03:49:56;7.50;60.00
80232;DHT22;74189;42.124;24.752;2023-11-21T03:52:22;7.40;59.80
80232;DHT22;74189;42.124;24.752;2023-11-21T03:54:47;7.40;59.90
80232;DHT22;74189;42.124;24.752;2023-11-21T03:57:13;7.30;60.70
80232;DHT22;74189;42.124;24.752;2023-11-21T03:59:43;7.40;61.10
80232;DHT22;74189;42.124;24.752;2023-11-21T04:02:09;7.40;60.90
80232;DHT22;74189;42.124;24.752;2023-11-21T04:04:35;7.40;60.90
80232;DHT22;74189;42.124;24.752;2023-11-21T04:07:01;7.40;61.00
80232;DHT22;74189;42.124;24.752;2023-11-21T04:09:27;7.40;60.50
80232;DHT22;74189;42.124;24.752;2023-11-21T04:11:53;7.40;60.30
80232;DHT22;74189;42.124;24.752;2023-11-21T04:14:19;7.40;61.00
80232;DHT22;74189;42.124;24.752;2023-11-21T04:16:45;7.40;61.40
80232;DHT22;74189;42.124;24.752;2023-11-21T04:19:11;7.40;61.10
80232;DHT22;74189;42.124;24.752;2023-11-21T04:21:40;7.50;60.70
80232;DHT22;74189;42.124;24.752;2023-11-21T04:24:06;7.40;60.70
80232;DHT22;74189;42.124;24.752;2023-11-21T04:26:32;7.40;60.70
80232;DHT22;74189;42.124;24.752;2023-11-21T04:28:57;7.40;60.50
80232;DHT22;74189;42.124;24.752;2023-11-21T04:31:23;7.40;60.80
80232;DHT22;74189;42.124;24.752;2023-11-21T04:33:49;7.40;60.90
80232;DHT22;74189;42.124;24.752;2023-11-21T04:36:14;7.40;60.30
80232;DHT22;74189;42.124;24.752;2023-11-21T04:38:40;7.40;60.90
80232;DHT22;74189;42.124;24.752;2023-11-21T04:41:07;7.40;61.20
80232;DHT22;74189;42.124;24.752;2023-11-21T04:43:32;7.40;61.20
80232;DHT22;74189;42.124;24.752;2023-11-21T04:45:58;7.40;60.90
80232;DHT22;74189;42.124;24.752;2023-11-21T04:48:24;7.40;60.70
80232;DHT22;74189;42.124;24.752;2023-11-21T04:50:50;7.40;60.70
80232;DHT22;74189;42.124;24.752;2023-11-21T04:53:17;7.40;60.70
80232;DHT22;74189;42.124;24.752;2023-11-21T04:55:43;7.30;61.30
80232;DHT22;74189;42.124;24.752;2023-11-21T04:58:09;7.30;60.20
80232;DHT22;74189;42.124;24.752;2023-11-21T05:00:35;7.30;60.60
80232;DHT22;74189;42.124;24.752;2023-11-21T05:03:02;7.30;61.00
80232;DHT22;74189;42.124;24.752;2023-11-21T05:05:29;7.30;61.10
80232;DHT22;74189;42.124;24.752;2023-11-21T05:07:57;7.30;60.70
80232;DHT22;74189;42.124;24.752;2023-11-21T05:10:23;7.30;61.00
80232;DHT22;74189;42.124;24.752;2023-11-21T05:12:49;7.30;61.10
80232;DHT22;74189;42.124;24.752;2023-11-21T05:15:17;7.30;60.70
80232;DHT22;74189;42.124;24.752;2023-11-21T05:17:43;7.30;60.70
80232;DHT22;74189;42.124;24.752;2023-11-21T05:20:15;7.30;60.80
80232;DHT22;74189;42.124;24.752;2023-11-21T05:22:47;7.30;61.00
80232;DHT22;74189;42.124;24.752;2023-11-21T05:25:16;7.30;60.90
80232;DHT22;74189;42.124;24.752;2023-11-21T05:27:48;7.30;60.70
80232;DHT22;74189;42.124;24.752;2023-11-21T05:30:14;7.30;61.00
80232;DHT22;74189;42.124;24.752;2023-11-21T05:32:40;7.30;61.00
80232;DHT22;74189;42.124;24.752;2023-11-21T05:35:09;7.40;61.30
80232;DHT22;74189;42.124;24.752;2023-11-21T05:37:38;7.40;61.40
80232;DHT22;74189;42.124;24.752;2023-11-21T05:40:08;7.40;62.50
80232;DHT22;74189;42.124;24.752;2023-11-21T05:42:34;7.40;61.40
80232;DHT22;74189;42.124;24.752;2023-11-21T05:45:03;7.40;61.40
80232;DHT22;74189;42.124;24.752;2023-11-21T05:47:39;7.40;61.30
80232;DHT22;74189;42.124;24.752;2023-11-21T05:50:06;7.40;61.00
80232;DHT22;74189;42.124;24.752;2023-11-21T05:52:35;7.40;61.30
80232;DHT22;74189;42.124;24.752;2023-11-21T05:55:01;7.50;61.60
80232;DHT22;74189;42.124;24.752;2023-11-21T05:57:27;7.50;61.40
80232;DHT22;74189;42.124;24.752;2023-11-21T05:59:52;7.50;61.40
80232;DHT22;74189;42.124;24.752;2023-11-21T06:02:18;7.50;61.40
80232;DHT22;74189;42.124;24.752;2023-11-21T06:04:44;7.50;61.40
80232;DHT22;74189;42.124;24.752;2023-11-21T06:07:10;7.60;61.30
80232;DHT22;74189;42.124;24.752;2023-11-21T06:09:36;7.60;61.20
80232;DHT22;74189;42.124;24.752;2023-11-21T06:12:02;7.50;61.40
80232;DHT22;74189;42.124;24.752;2023-11-21T06:14:29;7.60;61.60
80232;DHT22;74189;42.124;24.752;2023-11-21T06:16:55;7.60;61.50
80232;DHT22;74189;42.124;24.752;2023-11-21T06:19:22;7.60;61.60
80232;DHT22;74189;42.124;24.752;2023-11-21T06:21:47;7.60;61.60
80232;DHT22;74189;42.124;24.752;2023-11-21T06:24:13;7.70;62.60
80232;DHT22;74189;42.124;24.752;2023-11-21T06:26:40;7.70;61.50
80232;DHT22;74189;42.124;24.752;2023-11-21T06:29:06;7.80;61.10
80232;DHT22;74189;42.124;24.752;2023-11-21T06:31:32;7.80;61.20
80232;DHT22;74189;42.124;24.752;2023-11-21T06:33:58;7.80;61.00
80232;DHT22;74189;42.124;24.752;2023-11-21T06:36:25;7.80;61.30
80232;DHT22;74189;42.124;24.752;2023-11-21T06:38:52;7.80;61.00
80232;DHT22;74189;42.124;24.752;2023-11-21T06:41:17;7.90;61.00
80232;DHT22;74189;42.124;24.752;2023-11-21T06:43:43;8.00;61.10
80232;DHT22;74189;42.124;24.752;2023-11-21T06:46:12;8.10;60.50
80232;DHT22;74189;42.124;24.752;2023-11-21T06:48:43;8.10;60.60
80232;DHT22;74189;42.124;24.752;2023-11-21T06:51:09;8.20;60.30
80232;DHT22;74189;42.124;24.752;2023-11-21T06:53:37;8.20;60.60
80232;DHT22;74189;42.124;24.752;2023-11-21T06:56:03;8.20;61.10
80232;DHT22;74189;42.124;24.752;2023-11-21T06:58:29;8.40;60.10
80232;DHT22;74189;42.124;24.752;2023-11-21T07:00:54;8.50;60.10
80232;DHT22;74189;42.124;24.752;2023-11-21T07:03:20;8.60;60.20
80232;DHT22;74189;42.124;24.752;2023-11-21T07:05:46;8.60;59.40
80232;DHT22;74189;42.124;24.752;2023-11-21T07:08:11;8.70;59.80
80232;DHT22;74189;42.124;24.752;2023-11-21T07:10:38;8.90;60.00
80232;DHT22;74189;42.124;24.752;2023-11-21T07:13:04;8.90;58.70
80232;DHT22;74189;42.124;24.752;2023-11-21T07:15:29;9.00;58.60
80232;DHT22;74189;42.124;24.752;2023-11-21T07:17:55;9.10;59.20
80232;DHT22;74189;42.124;24.752;2023-11-21T07:20:21;9.20;59.20
80232;DHT22;74189;42.124;24.752;2023-11-21T07:22:47;9.30;58.60
80232;DHT22;74189;42.124;24.752;2023-11-21T07:25:12;9.30;59.00
80232;DHT22;74189;42.124;24.752;2023-11-21T07:27:38;9.30;59.30
80232;DHT22;74189;42.124;24.752;2023-11-21T07:30:04;9.30;59.20
80232;DHT22;74189;42.124;24.752;2023-11-21T07:32:31;9.40;59.10
80232;DHT22;74189;42.124;24.752;2023-11-21T07:34:57;9.30;58.40
80232;DHT22;74189;42.124;24.752;2023-11-21T07:37:25;9.30;58.20
80232;DHT22;74189;42.124;24.752;2023-11-21T07:39:51;9.30;58.50
80232;DHT22;74189;42.124;24.752;2023-11-21T07:42:24;9.40;58.30
80232;DHT22;74189;42.124;24.752;2023-11-21T07:44:52;9.40;58.00
80232;DHT22;74189;42.124;24.752;2023-11-21T07:47:17;9.50;58.10
80232;DHT22;74189;42.124;24.752;2023-11-21T07:49:43;9.40;58.30
80232;DHT22;74189;42.124;24.752;2023-11-21T07:52:10;9.40;58.50
80232;DHT22;74189;42.124;24.752;2023-11-21T07:54:36;9.50;58.30
80232;DHT22;74189;42.124;24.752;2023-11-21T07:57:01;9.50;58.50
80232;DHT22;74189;42.124;24.752;2023-11-21T07:59:29;9.60;58.50
80232;DHT22;74189;42.124;24.752;2023-11-21T08:01:55;9.50;58.30
80232;DHT22;74189;42.124;24.752;2023-11-21T08:04:21;9.60;58.60
80232;DHT22;74189;42.124;24.752;2023-11-21T08:06:47;9.60;58.10
80232;DHT22;74189;42.124;24.752;2023-11-21T08:09:13;9.60;58.10
80232;DHT22;74189;42.124;24.752;2023-11-21T08:11:38;9.60;58.10
80232;DHT22;74189;42.124;24.752;2023-11-21T08:14:05;9.60;58.20
80232;DHT22;74189;42.124;24.752;2023-11-21T08:16:30;9.70;58.30
80232;DHT22;74189;42.124;24.752;2023-11-21T08:18:56;9.70;58.60
80232;DHT22;74189;42.124;24.752;2023-11-21T08:21:22;9.70;58.60
80232;DHT22;74189;42.124;24.752;2023-11-21T08:23:54;9.80;58.40
80232;DHT22;74189;42.124;24.752;2023-11-21T08:26:21;9.80;58.10
80232;DHT22;74189;42.124;24.752;2023-11-21T08:28:47;9.90;58.80
80232;DHT22;74189;42.124;24.752;2023-11-21T08:31:13;9.90;58.20
80232;DHT22;74189;42.124;24.752;2023-11-21T08:33:38;9.90;57.60
80232;DHT22;74189;42.124;24.752;2023-11-21T08:36:08;10.00;57.60
80232;DHT22;74189;42.124;24.752;2023-11-21T08:38:35;10.00;58.20
80232;DHT22;74189;42.124;24.752;2023-11-21T08:41:06;10.00;57.60
80232;DHT22;74189;42.124;24.752;2023-11-21T08:43:36;10.00;57.90
80232;DHT22;74189;42.124;24.752;2023-11-21T08:46:06;10.10;57.70
80232;DHT22;74189;42.124;24.752;2023-11-21T08:48:31;10.10;57.80
80232;DHT22;74189;42.124;24.752;2023-11-21T08:50:57;10.20;57.70
80232;DHT22;74189;42.124;24.752;2023-11-21T08:53:23;10.20;57.20
80232;DHT22;74189;42.124;24.752;2023-11-21T08:55:48;10.20;57.00
80232;DHT22;74189;42.124;24.752;2023-11-21T08:58:15;10.20;57.10
80232;DHT22;74189;42.124;24.752;2023-11-21T09:00:41;10.30;57.00
80232;DHT22;74189;42.124;24.752;2023-11-21T09:03:07;10.30;56.70
80232;DHT22;74189;42.124;24.752;2023-11-21T09:05:37;10.30;56.60
80232;DHT22;74189;42.124;24.752;2023-11-21T09:08:04;10.40;56.60
80232;DHT22;74189;42.124;24.752;2023-11-21T09:10:29;10.40;56.30
80232;DHT22;74189;42.124;24.752;2023-11-21T09:12:55;10.40;56.60
80232;DHT22;74189;42.124;24.752;2023-11-21T09:15:21;10.40;56.30
80232;DHT22;74189;42.124;24.752;2023-11-21T09:17:47;10.40;56.00
80232;DHT22;74189;42.124;24.752;2023-11-21T09:20:12;10.40;56.50
80232;DHT22;74189;42.124;24.752;2023-11-21T09:22:40;10.40;56.50
80232;DHT22;74189;42.124;24.752;2023-11-21T09:25:06;10.50;56.00
80232;DHT22;74189;42.124;24.752;2023-11-21T09:27:34;10.40;56.10
80232;DHT22;74189;42.124;24.752;2023-11-21T09:30:01;10.40;56.10
80232;DHT22;74189;42.124;24.752;2023-11-21T09:32:27;10.50;56.00
80232;DHT22;74189;42.124;24.752;2023-11-21T09:34:52;10.50;56.20
80232;DHT22;74189;42.124;24.752;2023-11-21T09:37:20;10.60;56.30
80232;DHT22;74189;42.124;24.752;2023-11-21T09:39:46;10.60;56.30
80232;DHT22;74189;42.124;24.752;2023-11-21T09:42:17;10.60;56.10
80232;DHT22;74189;42.124;24.752;2023-11-21T09:45:11;10.60;56.20
80232;DHT22;74189;42.124;24.752;2023-11-21T09:47:38;10.60;56.40
80232;DHT22;74189;42.124;24.752;2023-11-21T09:50:05;10.60;56.40
80232;DHT22;74189;42.124;24.752;2023-11-21T09:52:48;10.60;56.00
80232;DHT22;74189;42.124;24.752;2023-11-21T09:55:18;10.70;56.00
80232;DHT22;74189;42.124;24.752;2023-11-21T09:57:47;10.70;56.20
80232;DHT22;74189;42.124;24.752;2023-11-21T10:00:15;10.70;56.80
80232;DHT22;74189;42.124;24.752;2023-11-21T10:02:43;10.70;56.70
80232;DHT22;74189;42.124;24.752;2023-11-21T10:05:09;10.80;56.60
80232;DHT22;74189;42.124;24.752;2023-11-21T10:07:39;10.80;56.70
80232;DHT22;74189;42.124;24.752;2023-11-21T10:10:07;10.80;56.40
80232;DHT22;74189;42.124;24.752;2023-11-21T10:12:35;10.70;57.10
80232;DHT22;74189;42.124;24.752;2023-11-21T10:15:03;10.80;56.80
80232;DHT22;74189;42.124;24.752;2023-11-21T10:17:32;10.90;56.70
80232;DHT22;74189;42.124;24.752;2023-11-21T10:20:05;10.90;55.80
80232;DHT22;74189;42.124;24.752;2023-11-21T10:22:38;11.00;55.50
80232;DHT22;74189;42.124;24.752;2023-11-21T10:25:06;11.10;55.50
80232;DHT22;74189;42.124;24.752;2023-11-21T10:27:37;11.00;55.30
80232;DHT22;74189;42.124;24.752;2023-11-21T10:30:05;10.90;55.60
80232;DHT22;74189;42.124;24.752;2023-11-21T10:32:31;10.80;55.40
80232;DHT22;74189;42.124;24.752;2023-11-21T10:34:59;10.90;55.10
80232;DHT22;74189;42.124;24.752;2023-11-21T10:37:38;11.00;55.00
80232;DHT22;74189;42.124;24.752;2023-11-21T10:40:11;11.00;54.60
80232;DHT22;74189;42.124;24.752;2023-11-21T10:42:40;11.00;54.50
80232;DHT22;74189;42.124;24.752;2023-11-21T10:45:07;11.10;54.50
80232;DHT22;74189;42.124;24.752;2023-11-21T10:47:40;11.10;54.00
80232;DHT22;74189;42.124;24.752;2023-11-21T10:50:07;11.20;53.50
80232;DHT22;74189;42.124;24.752;2023-11-21T10:52:37;11.20;53.90
80232;DHT22;74189;42.124;24.752;2023-11-21T10:55:16;11.30;54.00
80232;DHT22;74189;42.124;24.752;2023-11-21T10:57:45;11.40;54.10
80232;DHT22;74189;42.124;24.752;2023-11-21T11:00:14;11.40;54.10
80232;DHT22;74189;42.124;24.752;2023-11-21T11:02:41;11.40;53.80
80232;DHT22;74189;42.124;24.752;2023-11-21T11:05:08;11.40;53.30
80232;DHT22;74189;42.124;24.752;2023-11-21T11:07:38;11.40;53.40
80232;DHT22;74189;42.124;24.752;2023-11-21T11:10:06;11.40;53.60
80232;DHT22;74189;42.124;24.752;2023-11-21T11:12:34;11.40;53.80
80232;DHT22;74189;42.124;24.752;2023-11-21T11:15:01;11.50;53.80
80232;DHT22;74189;42.124;24.752;2023-11-21T11:17:28;11.50;54.10
80232;DHT22;74189;42.124;24.752;2023-11-21T11:19:54;11.50;54.10
80232;DHT22;74189;42.124;24.752;2023-11-21T11:22:36;11.50;54.10
80232;DHT22;74189;42.124;24.752;2023-11-21T11:25:25;11.50;54.10
80232;DHT22;74189;42.124;24.752;2023-11-21T11:28:20;11.60;54.00
80232;DHT22;74189;42.124;24.752;2023-11-21T11:33:48;11.60;53.40
80232;DHT22;74189;42.124;24.752;2023-11-21T11:36:19;11.50;52.40
80232;DHT22;74189;42.124;24.752;2023-11-21T11:38:47;11.50;53.00
80232;DHT22;74189;42.124;24.752;2023-11-21T11:41:27;11.50;52.70
80232;DHT22;74189;42.124;24.752;2023-11-21T11:43:56;11.60;52.70
80232;DHT22;74189;42.124;24.752;2023-11-21T11:46:40;11.60;52.70
80232;DHT22;74189;42.124;24.752;2023-11-21T11:49:07;11.60;52.80
80232;DHT22;74189;42.124;24.752;2023-11-21T11:51:33;11.60;52.90
80232;DHT22;74189;42.124;24.752;2023-11-21T11:54:01;11.70;53.60
80232;DHT22;74189;42.124;24.752;2023-11-21T11:56:31;11.70;54.90
80232;DHT22;74189;42.124;24.752;2023-11-21T11:59:01;11.70;55.90
80232;DHT22;74189;42.124;24.752;2023-11-21T12:01:28;11.70;54.90
80232;DHT22;74189;42.124;24.752;2023-11-21T12:06:57;11.70;55.20
80232;DHT22;74189;42.124;24.752;2023-11-21T12:09:25;11.70;54.70
80232;DHT22;74189;42.124;24.752;2023-11-21T12:11:52;11.70;54.60
80232;DHT22;74189;42.124;24.752;2023-11-21T12:14:20;11.70;55.00
80232;DHT22;74189;42.124;24.752;2023-11-21T12:16:45;11.70;55.40
80232;DHT22;74189;42.124;24.752;2023-11-21T12:19:11;11.70;55.80
80232;DHT22;74189;42.124;24.752;2023-11-21T12:21:38;11.70;56.20
80232;DHT22;74189;42.124;24.752;2023-11-21T12:24:04;11.80;56.90
80232;DHT22;74189;42.124;24.752;2023-11-21T12:26:34;11.80;57.50
80232;DHT22;74189;42.124;24.752;2023-11-21T12:29:00;11.80;57.40
80232;DHT22;74189;42.124;24.752;2023-11-21T12:31:28;11.70;57.00
80232;DHT22;74189;42.124;24.752;2023-11-21T12:33:55;11.70;56.90
80232;DHT22;74189;42.124;24.752;2023-11-21T12:36:22;11.70;56.50
80232;DHT22;74189;42.124;24.752;2023-11-21T12:38:47;11.70;56.00
80232;DHT22;74189;42.124;24.752;2023-11-21T12:41:13;11.70;56.10
80232;DHT22;74189;42.124;24.752;2023-11-21T12:43:41;11.60;56.20
80232;DHT22;74189;42.124;24.752;2023-11-21T12:46:10;11.70;56.40
80232;DHT22;74189;42.124;24.752;2023-11-21T12:48:41;11.70;57.00
80232;DHT22;74189;42.124;24.752;2023-11-21T12:51:10;11.70;57.10
80232;DHT22;74189;42.124;24.752;2023-11-21T12:53:37;11.60;56.90
80232;DHT22;74189;42.124;24.752;2023-11-21T12:56:07;11.60;56.20
80232;DHT22;74189;42.124;24.752;2023-11-21T12:58:36;11.60;56.10
80232;DHT22;74189;42.124;24.752;2023-11-21T13:01:02;11.60;56.50
80232;DHT22;74189;42.124;24.752;2023-11-21T13:03:30;11.60;56.40
80232;DHT22;74189;42.124;24.752;2023-11-21T13:05:56;11.60;56.20
80232;DHT22;74189;42.124;24.752;2023-11-21T13:08:25;11.60;55.90
80232;DHT22;74189;42.124;24.752;2023-11-21T13:10:55;11.60;55.70
80232;DHT22;74189;42.124;24.752;2023-11-21T13:13:21;11.60;55.80
80232;DHT22;74189;42.124;24.752;2023-11-21T13:15:59;11.60;56.20
80232;DHT22;74189;42.124;24.752;2023-11-21T13:18:33;11.60;55.80
80232;DHT22;74189;42.124;24.752;2023-11-21T13:21:03;11.60;56.00
80232;DHT22;74189;42.124;24.752;2023-11-21T13:23:35;11.60;56.30
80232;DHT22;74189;42.124;24.752;2023-11-21T13:26:01;11.60;56.60
80232;DHT22;74189;42.124;24.752;2023-11-21T13:28:29;11.50;56.70
80232;DHT22;74189;42.124;24.752;2023-11-21T13:30:59;11.50;57.10
80232;DHT22;74189;42.124;24.752;2023-11-21T13:33:45;11.50;55.90
80232;DHT22;74189;42.124;24.752;2023-11-21T13:36:15;11.50;56.00
80232;DHT22;74189;42.124;24.752;2023-11-21T13:38:48;11.60;56.20
80232;DHT22;74189;42.124;24.752;2023-11-21T13:41:14;11.50;56.30
80232;DHT22;74189;42.124;24.752;2023-11-21T13:43:40;11.50;56.30
80232;DHT22;74189;42.124;24.752;2023-11-21T13:46:09;11.40;57.70
80232;DHT22;74189;42.124;24.752;2023-11-21T13:48:47;11.30;58.00
80232;DHT22;74189;42.124;24.752;2023-11-21T13:51:16;11.30;57.90
80232;DHT22;74189;42.124;24.752;2023-11-21T13:53:46;11.30;57.80
80232;DHT22;74189;42.124;24.752;2023-11-21T13:56:19;11.40;58.20
80232;DHT22;74189;42.124;24.752;2023-11-21T13:58:53;11.40;57.50
80232;DHT22;74189;42.124;24.752;2023-11-21T14:01:20;11.40;57.50
80232;DHT22;74189;42.124;24.752;2023-11-21T14:03:49;11.40;57.50
80232;DHT22;74189;42.124;24.752;2023-11-21T14:06:22;11.50;57.70
80232;DHT22;74189;42.124;24.752;2023-11-21T14:08:52;11.50;57.60
80232;DHT22;74189;42.124;24.752;2023-11-21T14:11:19;11.40;58.00
80232;DHT22;74189;42.124;24.752;2023-11-21T14:13:47;11.40;57.80
80232;DHT22;74189;42.124;24.752;2023-11-21T14:16:14;11.30;56.30
80232;DHT22;74189;42.124;24.752;2023-11-21T14:18:42;11.20;55.80
80232;DHT22;74189;42.124;24.752;2023-11-21T14:21:21;11.10;56.10
80232;DHT22;74189;42.124;24.752;2023-11-21T14:23:47;10.90;56.80
80232;DHT22;74189;42.124;24.752;2023-11-21T14:26:13;10.90;58.50
80232;DHT22;74189;42.124;24.752;2023-11-21T14:28:41;10.80;59.20
80232;DHT22;74189;42.124;24.752;2023-11-21T14:31:07;10.80;59.60
80232;DHT22;74189;42.124;24.752;2023-11-21T14:33:33;10.70;59.60
80232;DHT22;74189;42.124;24.752;2023-11-21T14:35:59;10.70;59.80
80232;DHT22;74189;42.124;24.752;2023-11-21T14:38:24;10.70;60.00
80232;DHT22;74189;42.124;24.752;2023-11-21T14:40:50;10.70;60.10
80232;DHT22;74189;42.124;24.752;2023-11-21T14:43:16;10.60;60.00
80232;DHT22;74189;42.124;24.752;2023-11-21T14:45:44;10.60;60.30
80232;DHT22;74189;42.124;24.752;2023-11-21T14:48:10;10.60;60.00
80232;DHT22;74189;42.124;24.752;2023-11-21T14:50:42;10.50;60.60
80232;DHT22;74189;42.124;24.752;2023-11-21T14:53:09;10.60;62.00
80232;DHT22;74189;42.124;24.752;2023-11-21T14:55:36;10.60;62.40
80232;DHT22;74189;42.124;24.752;2023-11-21T14:58:04;10.60;62.30
80232;DHT22;74189;42.124;24.752;2023-11-21T15:00:30;10.70;62.50
80232;DHT22;74189;42.124;24.752;2023-11-21T15:02:59;10.70;62.50
80232;DHT22;74189;42.124;24.752;2023-11-21T15:05:26;10.70;62.00
80232;DHT22;74189;42.124;24.752;2023-11-21T15:07:53;10.70;61.80
80232;DHT22;74189;42.124;24.752;2023-11-21T15:10:24;10.70;62.00
80232;DHT22;74189;42.124;24.752;2023-11-21T15:13:05;10.80;62.30
80232;DHT22;74189;42.124;24.752;2023-11-21T15:15:30;10.80;61.80
80232;DHT22;74189;42.124;24.752;2023-11-21T15:17:59;10.80;61.40
80232;DHT22;74189;42.124;24.752;2023-11-21T15:20:25;10.80;62.10
80232;DHT22;74189;42.124;24.752;2023-11-21T15:22:52;10.80;62.00
80232;DHT22;74189;42.124;24.752;2023-11-21T15:25:18;10.80;61.90
80232;DHT22;74189;42.124;24.752;2023-11-21T15:27:43;10.80;62.10
80232;DHT22;74189;42.124;24.752;2023-11-21T15:30:09;10.80;61.80
80232;DHT22;74189;42.124;24.752;2023-11-21T15:32:35;10.80;61.80